Citadel — PBOK — position and weather

sailwx.info

Track history (hours):
 
Tides and Currents Weather Stations Pressure Air Temp Water Temp Dewpoint Dewpoint Depression Visibility Wind Speed Wind Dir Waves Ship Positions

Citadel

Last reported at 2017-Aug-17 06:36 UTC. Time now 2017-Aug-18 23:45 UTC.
Position N 36°30' E 018°24'.

Length 111 m; draft 5.4 m.

Type: Ship. MMSI: 245977000.

Date/timePositionNaut miles runAvg speedWind from/ knotsBaromVisibWave heightAir tempDewpointWater temp
2017-Aug-17 06:36N 36°30' E 018°24'3410.5
2017-Aug-17 03:24N 36°31' E 017°43'7410.7
2017-Aug-16 20:26N 36°31' E 016°10'511.2
2017-Aug-16 20:01N 36°31' E 016°04'611.1
2017-Aug-16 19:30N 36°31' E 015°57'511.0
2017-Aug-16 19:01N 36°31' E 015°51'510.7
2017-Aug-16 18:30N 36°31' E 015°44'510.5
2017-Aug-16 18:00N 36°31' E 015°37'510.7
2017-Aug-16 17:30N 36°31' E 015°31'610.7
2017-Aug-16 17:00N 36°31' E 015°24'510.8
2017-Aug-16 16:30N 36°31' E 015°17'510.7
2017-Aug-16 16:00N 36°30' E 015°11'510.6
2017-Aug-16 15:30N 36°30' E 015°04'510.5
2017-Aug-16 15:01N 36°30' E 014°58'610.9
2017-Aug-16 14:30N 36°30' E 014°51'611.2
2017-Aug-16 14:00N 36°30' E 014°44'611.3
2017-Aug-16 13:30N 36°30' E 014°37'611.3
2017-Aug-16 13:00N 36°32' E 014°30'611.2
2017-Aug-16 12:30N 36°33' E 014°23'611.1
2017-Aug-16 12:00N 36°35' E 014°17'611.2
2017-Aug-16 11:30N 36°37' E 014°10'611.3
2017-Aug-16 11:00N 36°39' E 014°04'611.3
2017-Aug-16 10:30N 36°40' E 013°57'511.1
2017-Aug-16 10:00N 36°42' E 013°50'611.3
2017-Aug-16 09:31N 36°44' E 013°44'611.3
2017-Aug-16 09:00N 36°46' E 013°37'611.3
2017-Aug-16 08:30N 36°47' E 013°30'611.2
2017-Aug-16 08:00N 36°49' E 013°23'611.2
2017-Aug-16 07:30N 36°51' E 013°17'611.3
2017-Aug-16 07:01N 36°52' E 013°10'611.4
2017-Aug-16 06:30N 36°54' E 013°03'611.3
2017-Aug-16 06:01N 36°56' E 012°57'611.4
2017-Aug-16 05:30N 36°57' E 012°50'611.3
2017-Aug-16 05:00N 36°59' E 012°43'611.3
2017-Aug-16 04:30N 37°01' E 012°36'611.6
2017-Aug-16 04:00N 37°03' E 012°29'611.3
2017-Aug-16 03:30N 37°04' E 012°23'611.1
2017-Aug-16 03:00N 37°06' E 012°16'611.3
2017-Aug-16 02:30N 37°07' E 012°09'611.5
2017-Aug-16 02:00N 37°09' E 012°02'811.2
2017-Aug-16 01:20N 37°11' E 011°53'611.2
2017-Aug-16 00:45N 37°13' E 011°45'310.9
2017-Aug-16 00:29N 37°14' E 011°42'610.7
2017-Aug-15 23:58N 37°16' E 011°35'610.8
2017-Aug-15 23:26N 37°17' E 011°28'510.8
2017-Aug-15 23:00N 37°19' E 011°23'611.0
2017-Aug-15 22:30N 37°21' E 011°16'611.2
2017-Aug-15 21:59N 37°23' E 011°10'611.2
2017-Aug-15 21:30N 37°25' E 011°03'611.2
2017-Aug-15 21:00N 37°26' E 010°56'511.1
2017-Aug-15 20:30N 37°28' E 010°50'611.1
2017-Aug-15 20:00N 37°29' E 010°43'611.1
2017-Aug-15 19:29N 37°30' E 010°36'710.9
2017-Aug-15 18:52N 37°32' E 010°27'410.8
2017-Aug-15 18:29N 37°32' E 010°22'511.0
2017-Aug-15 18:00N 37°33' E 010°16'611.0
2017-Aug-15 17:29N 37°34' E 010°09'1011.0
2017-Aug-15 16:36N 37°34' E 009°56'111.0
2017-Aug-15 16:30N 37°35' E 009°55'3310.8
2017-Aug-15 13:26N 37°36' E 009°13'710.9
2017-Aug-15 12:46N 37°36' E 009°04'310.6
2017-Aug-15 12:30N 37°36' E 009°00'710.6
2017-Aug-15 11:49N 37°36' E 008°51'310.6
2017-Aug-15 11:30N 37°35' E 008°47'5310.2
2017-Aug-15 06:16N 37°31' E 007°40'2111.5
2017-Aug-15 04:30N 37°29' E 007°14'7911.3
2017-Aug-14 21:28N 37°21' E 005°34'810.9
2017-Aug-14 20:46N 37°20' E 005°25'311.1
2017-Aug-14 20:30N 37°20' E 005°21'611.1
2017-Aug-14 20:00N 37°19' E 005°14'2811.1
2017-Aug-14 17:28N 37°15' E 004°39'611.3
2017-Aug-14 16:57N 37°15' E 004°32'811.4
2017-Aug-14 16:16N 37°14' E 004°22'311.4
2017-Aug-14 16:00N 37°13' E 004°18'1911.0
2017-Aug-14 14:15N 37°11' E 003°54'310.7
2017-Aug-14 13:58N 37°11' E 003°51'4810.9
2017-Aug-14 09:33N 37°04' E 002°51'111.0
2017-Aug-14 09:30N 37°04' E 002°50'510.9
2017-Aug-14 09:00N 37°03' E 002°43'1910.8
2017-Aug-14 07:14N 37°00' E 002°20'310.8
2017-Aug-14 07:00N 36°60' E 002°17'510.7
2017-Aug-14 06:30N 36°59' E 002°10'3810.0
2017-Aug-14 02:44N 36°53' E 001°23'5 9.9
2017-Aug-14 02:15N 36°53' E 001°17'810.2
2017-Aug-14 01:30N 36°52' E 001°08'1210.4
2017-Aug-14 00:21N 36°49' E 000°53'411.1
2017-Aug-14 00:00N 36°49' E 000°48'611.1
2017-Aug-13 23:27N 36°48' E 000°41'610.7
2017-Aug-13 22:55N 36°47' E 000°34'410.3
2017-Aug-13 22:30N 36°46' E 000°29'510.3
2017-Aug-13 22:00N 36°46' E 000°22'5 9.9
2017-Aug-13 21:30N 36°45' E 000°16'19 9.1
2017-Aug-13 19:21N 36°41' W 000°08'24310.7
2017-Aug-12 20:35N 35°57' W 005°05'111.0
2017-Aug-12 20:30N 35°57' W 005°06'611.6
2017-Aug-12 20:01N 35°56' W 005°13'510.1
2017-Aug-12 19:31N 35°54' W 005°19'1 1.2
2017-Aug-12 19:01N 35°54' W 005°19'0 0.0
2017-Aug-12 18:31N 35°54' W 005°19'0 0.0
2017-Aug-12 18:01N 35°54' W 005°19'0 0.0
2017-Aug-12 17:31N 35°54' W 005°19'0 0.0
2017-Aug-12 17:01N 35°54' W 005°19'0 0.0
2017-Aug-12 16:31N 35°54' W 005°19'0 0.2
2017-Aug-12 16:01N 35°54' W 005°19'1 2.5
2017-Aug-12 15:31N 35°55' W 005°19'0 0.8
2017-Aug-12 15:01N 35°55' W 005°19'1 2.7
2017-Aug-12 14:31N 35°56' W 005°20'2 4.7
2017-Aug-12 14:01N 35°56' W 005°23'3 5.5
2017-Aug-12 13:31N 35°57' W 005°27'8 9.1
2017-Aug-12 12:37N 35°55' W 005°36'15710.6
2017-Aug-11 21:45N 36°28' W 008°46'311.5
2017-Aug-11 21:31N 36°29' W 008°50'611.6
2017-Aug-11 21:00N 36°31' W 008°57'611.5
2017-Aug-11 20:30N 36°32' W 009°03'611.5
2017-Aug-11 20:00N 36°34' W 009°10'611.9
2017-Aug-11 19:30N 36°36' W 009°17'612.4
2017-Aug-11 19:00N 36°40' W 009°23'612.7
2017-Aug-11 18:31N 36°45' W 009°28'1211.7
2017-Aug-11 17:30N 36°56' W 009°34'612.2
2017-Aug-11 17:01N 37°01' W 009°35'611.8
2017-Aug-11 16:30N 37°07' W 009°37'611.7
2017-Aug-11 16:00N 37°13' W 009°39'611.9
2017-Aug-11 15:30N 37°19' W 009°41'611.8
2017-Aug-11 15:01N 37°24' W 009°43'612.2
2017-Aug-11 14:31N 37°30' W 009°45'1212.2
2017-Aug-11 13:30N 37°42' W 009°47'612.2
2017-Aug-11 13:01N 37°48' W 009°49'612.1
2017-Aug-11 12:31N 37°54' W 009°50'612.1
2017-Aug-11 12:00N 38°00' W 009°52'611.9
2017-Aug-11 11:31N 38°06' W 009°54'611.9
2017-Aug-11 11:00N 38°12' W 009°56'612.2
2017-Aug-11 10:30N 38°18' W 009°58'612.0
2017-Aug-11 10:00N 38°23' W 009°59'611.8
2017-Aug-11 09:31N 38°29' W 010°01'612.0
2017-Aug-11 09:00N 38°35' W 010°03'611.8
2017-Aug-11 08:30N 38°41' W 010°05'611.7
2017-Aug-11 08:00N 38°47' W 010°05'612.1
2017-Aug-11 07:30N 38°53' W 010°05'612.3
2017-Aug-11 07:00N 38°59' W 010°05'612.1
2017-Aug-11 06:30N 39°05' W 010°05'612.0
2017-Aug-11 06:01N 39°11' W 010°06'611.8
2017-Aug-11 05:31N 39°17' W 010°05'612.1
2017-Aug-11 05:00N 39°23' W 010°05'611.8
2017-Aug-11 04:31N 39°29' W 010°05'611.9
2017-Aug-11 04:00N 39°35' W 010°05'612.0
2017-Aug-11 03:31N 39°41' W 010°05'611.9
2017-Aug-11 03:00N 39°46' W 010°05'611.9
2017-Aug-11 02:30N 39°52' W 010°05'611.6
2017-Aug-11 02:01N 39°58' W 010°05'611.4
2017-Aug-11 01:30N 40°04' W 010°05'611.7
2017-Aug-11 01:00N 40°10' W 010°05'611.5
2017-Aug-11 00:31N 40°15' W 010°05'611.9
2017-Aug-11 00:00N 40°21' W 010°05'611.7
2017-Aug-10 23:30N 40°27' W 010°05'911.7
2017-Aug-10 22:43N 40°37' W 010°05'411.8
2017-Aug-10 22:25N 40°40' W 010°05'511.9
2017-Aug-10 22:00N 40°45' W 010°05'611.8
2017-Aug-10 21:29N 40°51' W 010°05'  
2017-Aug-08 16:41N 49°33' W 003°58'210.1
2017-Aug-08 16:26N 49°34' W 003°54'510.5
2017-Aug-08 15:58N 49°37' W 003°48'511.0
2017-Aug-08 15:30N 49°39' W 003°41'611.7
2017-Aug-08 15:00N 49°42' W 003°33'612.4
2017-Aug-08 14:30N 49°45' W 003°25'612.8
2017-Aug-08 14:00N 49°49' W 003°17'713.1
2017-Aug-08 13:30N 49°52' W 003°08'713.1
2017-Aug-08 13:00N 49°55' W 002°59'712.9
2017-Aug-08 12:30N 49°58' W 002°50'3910.7
2017-Aug-08 08:49N 50°09' W 001°51'3 8.3
2017-Aug-08 08:30N 50°10' W 001°47'4 8.1
2017-Aug-08 08:00N 50°11' W 001°41'8 8.5
2017-Aug-08 07:02N 50°14' W 001°29'0 8.9
2017-Aug-08 07:00N 50°14' W 001°29'4212.1
2017-Aug-08 03:29N 50°27' W 000°25'713.5
2017-Aug-08 03:00N 50°29' W 000°16'713.5
2017-Aug-08 02:30N 50°31' W 000°06'713.2
2017-Aug-08 02:00N 50°33' E 000°04'612.9
2017-Aug-08 01:30N 50°35' E 000°14'612.5
2017-Aug-08 01:00N 50°37' E 000°23'612.0
2017-Aug-08 00:30N 50°38' E 000°32'611.4
2017-Aug-08 00:00N 50°41' E 000°40'511.0
2017-Aug-07 23:30N 50°44' E 000°47'510.6
2017-Aug-07 23:00N 50°47' E 000°54'510.4
2017-Aug-07 22:30N 50°50' E 001°01'510.6
2017-Aug-07 22:00N 50°54' E 001°07'611.0
2017-Aug-07 21:30N 50°57' E 001°14'611.8
2017-Aug-07 20:58N 51°01' E 001°22'613.4
2017-Aug-07 20:30N 51°05' E 001°30'714.5
2017-Aug-07 20:00N 51°10' E 001°38'714.0
2017-Aug-07 19:30N 51°15' E 001°46'713.9
2017-Aug-07 19:00N 51°21' E 001°51'613.0
2017-Aug-07 18:30N 51°27' E 001°56'612.3
2017-Aug-07 18:00N 51°31' E 002°03'611.9
2017-Aug-07 17:30N 51°36' E 002°09'611.6
2017-Aug-07 17:00N 51°40' E 002°16'611.3
2017-Aug-07 16:30N 51°44' E 002°22'510.6
2017-Aug-07 16:00N 51°48' E 002°28'510.6
2017-Aug-07 15:30N 51°52' E 002°33'  
Track history (hours):
 
Tides and Currents Weather Stations Pressure Air Temp Water Temp Dewpoint Dewpoint Depression Visibility Wind Speed Wind Dir Waves Ship Positions

Citadel

Last reported at 2017-Aug-17 06:36 UTC. Time now 2017-Aug-18 23:45 UTC.
Position N 36°30' E 018°24'.

Length 111 m; draft 5.4 m.

Type: Ship. MMSI: 245977000.

Date/timePositionNaut miles runAvg speedWind from/ knotsBaromVisibWave heightAir tempDewpointWater temp
2017-Aug-17 06:36N 36°30' E 018°24'3410.5
2017-Aug-17 03:24N 36°31' E 017°43'7410.7
2017-Aug-16 20:26N 36°31' E 016°10'511.2
2017-Aug-16 20:01N 36°31' E 016°04'611.1
2017-Aug-16 19:30N 36°31' E 015°57'511.0
2017-Aug-16 19:01N 36°31' E 015°51'510.7
2017-Aug-16 18:30N 36°31' E 015°44'510.5
2017-Aug-16 18:00N 36°31' E 015°37'510.7
2017-Aug-16 17:30N 36°31' E 015°31'610.7
2017-Aug-16 17:00N 36°31' E 015°24'510.8
2017-Aug-16 16:30N 36°31' E 015°17'510.7
2017-Aug-16 16:00N 36°30' E 015°11'510.6
2017-Aug-16 15:30N 36°30' E 015°04'510.5
2017-Aug-16 15:01N 36°30' E 014°58'610.9
2017-Aug-16 14:30N 36°30' E 014°51'611.2
2017-Aug-16 14:00N 36°30' E 014°44'611.3
2017-Aug-16 13:30N 36°30' E 014°37'611.3
2017-Aug-16 13:00N 36°32' E 014°30'611.2
2017-Aug-16 12:30N 36°33' E 014°23'611.1
2017-Aug-16 12:00N 36°35' E 014°17'611.2
2017-Aug-16 11:30N 36°37' E 014°10'611.3
2017-Aug-16 11:00N 36°39' E 014°04'611.3
2017-Aug-16 10:30N 36°40' E 013°57'511.1
2017-Aug-16 10:00N 36°42' E 013°50'611.3
2017-Aug-16 09:31N 36°44' E 013°44'611.3
2017-Aug-16 09:00N 36°46' E 013°37'611.3
2017-Aug-16 08:30N 36°47' E 013°30'611.2
2017-Aug-16 08:00N 36°49' E 013°23'611.2
2017-Aug-16 07:30N 36°51' E 013°17'611.3
2017-Aug-16 07:01N 36°52' E 013°10'611.4
2017-Aug-16 06:30N 36°54' E 013°03'611.3
2017-Aug-16 06:01N 36°56' E 012°57'611.4
2017-Aug-16 05:30N 36°57' E 012°50'611.3
2017-Aug-16 05:00N 36°59' E 012°43'611.3
2017-Aug-16 04:30N 37°01' E 012°36'611.6
2017-Aug-16 04:00N 37°03' E 012°29'611.3
2017-Aug-16 03:30N 37°04' E 012°23'611.1
2017-Aug-16 03:00N 37°06' E 012°16'611.3
2017-Aug-16 02:30N 37°07' E 012°09'611.5
2017-Aug-16 02:00N 37°09' E 012°02'811.2
2017-Aug-16 01:20N 37°11' E 011°53'611.2
2017-Aug-16 00:45N 37°13' E 011°45'310.9
2017-Aug-16 00:29N 37°14' E 011°42'610.7
2017-Aug-15 23:58N 37°16' E 011°35'610.8
2017-Aug-15 23:26N 37°17' E 011°28'510.8
2017-Aug-15 23:00N 37°19' E 011°23'611.0
2017-Aug-15 22:30N 37°21' E 011°16'611.2
2017-Aug-15 21:59N 37°23' E 011°10'611.2
2017-Aug-15 21:30N 37°25' E 011°03'611.2
2017-Aug-15 21:00N 37°26' E 010°56'511.1
2017-Aug-15 20:30N 37°28' E 010°50'611.1
2017-Aug-15 20:00N 37°29' E 010°43'611.1
2017-Aug-15 19:29N 37°30' E 010°36'710.9
2017-Aug-15 18:52N 37°32' E 010°27'410.8
2017-Aug-15 18:29N 37°32' E 010°22'511.0
2017-Aug-15 18:00N 37°33' E 010°16'611.0
2017-Aug-15 17:29N 37°34' E 010°09'1011.0
2017-Aug-15 16:36N 37°34' E 009°56'111.0
2017-Aug-15 16:30N 37°35' E 009°55'3310.8
2017-Aug-15 13:26N 37°36' E 009°13'710.9
2017-Aug-15 12:46N 37°36' E 009°04'310.6
2017-Aug-15 12:30N 37°36' E 009°00'710.6
2017-Aug-15 11:49N 37°36' E 008°51'310.6
2017-Aug-15 11:30N 37°35' E 008°47'5310.2
2017-Aug-15 06:16N 37°31' E 007°40'2111.5
2017-Aug-15 04:30N 37°29' E 007°14'7911.3
2017-Aug-14 21:28N 37°21' E 005°34'810.9
2017-Aug-14 20:46N 37°20' E 005°25'311.1
2017-Aug-14 20:30N 37°20' E 005°21'611.1
2017-Aug-14 20:00N 37°19' E 005°14'2811.1
2017-Aug-14 17:28N 37°15' E 004°39'611.3
2017-Aug-14 16:57N 37°15' E 004°32'811.4
2017-Aug-14 16:16N 37°14' E 004°22'311.4
2017-Aug-14 16:00N 37°13' E 004°18'1911.0
2017-Aug-14 14:15N 37°11' E 003°54'310.7
2017-Aug-14 13:58N 37°11' E 003°51'4810.9
2017-Aug-14 09:33N 37°04' E 002°51'111.0
2017-Aug-14 09:30N 37°04' E 002°50'510.9
2017-Aug-14 09:00N 37°03' E 002°43'1910.8
2017-Aug-14 07:14N 37°00' E 002°20'310.8
2017-Aug-14 07:00N 36°60' E 002°17'510.7
2017-Aug-14 06:30N 36°59' E 002°10'3810.0
2017-Aug-14 02:44N 36°53' E 001°23'5 9.9
2017-Aug-14 02:15N 36°53' E 001°17'810.2
2017-Aug-14 01:30N 36°52' E 001°08'1210.4
2017-Aug-14 00:21N 36°49' E 000°53'411.1
2017-Aug-14 00:00N 36°49' E 000°48'611.1
2017-Aug-13 23:27N 36°48' E 000°41'610.7
2017-Aug-13 22:55N 36°47' E 000°34'410.3
2017-Aug-13 22:30N 36°46' E 000°29'510.3
2017-Aug-13 22:00N 36°46' E 000°22'5 9.9
2017-Aug-13 21:30N 36°45' E 000°16'19 9.1
2017-Aug-13 19:21N 36°41' W 000°08'24310.7
2017-Aug-12 20:35N 35°57' W 005°05'111.0
2017-Aug-12 20:30N 35°57' W 005°06'611.6
2017-Aug-12 20:01N 35°56' W 005°13'510.1
2017-Aug-12 19:31N 35°54' W 005°19'1 1.2
2017-Aug-12 19:01N 35°54' W 005°19'0 0.0
2017-Aug-12 18:31N 35°54' W 005°19'0 0.0
2017-Aug-12 18:01N 35°54' W 005°19'0 0.0
2017-Aug-12 17:31N 35°54' W 005°19'0 0.0
2017-Aug-12 17:01N 35°54' W 005°19'0 0.0
2017-Aug-12 16:31N 35°54' W 005°19'0 0.2
2017-Aug-12 16:01N 35°54' W 005°19'1 2.5
2017-Aug-12 15:31N 35°55' W 005°19'0 0.8
2017-Aug-12 15:01N 35°55' W 005°19'1 2.7
2017-Aug-12 14:31N 35°56' W 005°20'2 4.7
2017-Aug-12 14:01N 35°56' W 005°23'3 5.5
2017-Aug-12 13:31N 35°57' W 005°27'8 9.1
2017-Aug-12 12:37N 35°55' W 005°36'15710.6
2017-Aug-11 21:45N 36°28' W 008°46'311.5
2017-Aug-11 21:31N 36°29' W 008°50'611.6
2017-Aug-11 21:00N 36°31' W 008°57'611.5
2017-Aug-11 20:30N 36°32' W 009°03'611.5
2017-Aug-11 20:00N 36°34' W 009°10'611.9
2017-Aug-11 19:30N 36°36' W 009°17'612.4
2017-Aug-11 19:00N 36°40' W 009°23'612.7
2017-Aug-11 18:31N 36°45' W 009°28'1211.7
2017-Aug-11 17:30N 36°56' W 009°34'612.2
2017-Aug-11 17:01N 37°01' W 009°35'611.8
2017-Aug-11 16:30N 37°07' W 009°37'611.7
2017-Aug-11 16:00N 37°13' W 009°39'611.9
2017-Aug-11 15:30N 37°19' W 009°41'611.8
2017-Aug-11 15:01N 37°24' W 009°43'612.2
2017-Aug-11 14:31N 37°30' W 009°45'1212.2
2017-Aug-11 13:30N 37°42' W 009°47'612.2
2017-Aug-11 13:01N 37°48' W 009°49'612.1
2017-Aug-11 12:31N 37°54' W 009°50'612.1
2017-Aug-11 12:00N 38°00' W 009°52'611.9
2017-Aug-11 11:31N 38°06' W 009°54'611.9
2017-Aug-11 11:00N 38°12' W 009°56'612.2
2017-Aug-11 10:30N 38°18' W 009°58'612.0
2017-Aug-11 10:00N 38°23' W 009°59'611.8
2017-Aug-11 09:31N 38°29' W 010°01'612.0
2017-Aug-11 09:00N 38°35' W 010°03'611.8
2017-Aug-11 08:30N 38°41' W 010°05'611.7
2017-Aug-11 08:00N 38°47' W 010°05'612.1
2017-Aug-11 07:30N 38°53' W 010°05'612.3
2017-Aug-11 07:00N 38°59' W 010°05'612.1
2017-Aug-11 06:30N 39°05' W 010°05'612.0
2017-Aug-11 06:01N 39°11' W 010°06'611.8
2017-Aug-11 05:31N 39°17' W 010°05'612.1
2017-Aug-11 05:00N 39°23' W 010°05'611.8
2017-Aug-11 04:31N 39°29' W 010°05'611.9
2017-Aug-11 04:00N 39°35' W 010°05'612.0
2017-Aug-11 03:31N 39°41' W 010°05'611.9
2017-Aug-11 03:00N 39°46' W 010°05'611.9
2017-Aug-11 02:30N 39°52' W 010°05'611.6
2017-Aug-11 02:01N 39°58' W 010°05'611.4
2017-Aug-11 01:30N 40°04' W 010°05'611.7
2017-Aug-11 01:00N 40°10' W 010°05'611.5
2017-Aug-11 00:31N 40°15' W 010°05'611.9
2017-Aug-11 00:00N 40°21' W 010°05'611.7
2017-Aug-10 23:30N 40°27' W 010°05'911.7
2017-Aug-10 22:43N 40°37' W 010°05'411.8
2017-Aug-10 22:25N 40°40' W 010°05'511.9
2017-Aug-10 22:00N 40°45' W 010°05'611.8
2017-Aug-10 21:29N 40°51' W 010°05'  
2017-Aug-08 16:41N 49°33' W 003°58'210.1
2017-Aug-08 16:26N 49°34' W 003°54'510.5
2017-Aug-08 15:58N 49°37' W 003°48'511.0
2017-Aug-08 15:30N 49°39' W 003°41'611.7
2017-Aug-08 15:00N 49°42' W 003°33'612.4
2017-Aug-08 14:30N 49°45' W 003°25'612.8
2017-Aug-08 14:00N 49°49' W 003°17'713.1
2017-Aug-08 13:30N 49°52' W 003°08'713.1
2017-Aug-08 13:00N 49°55' W 002°59'712.9
2017-Aug-08 12:30N 49°58' W 002°50'3910.7
2017-Aug-08 08:49N 50°09' W 001°51'3 8.3
2017-Aug-08 08:30N 50°10' W 001°47'4 8.1
2017-Aug-08 08:00N 50°11' W 001°41'8 8.5
2017-Aug-08 07:02N 50°14' W 001°29'0 8.9
2017-Aug-08 07:00N 50°14' W 001°29'4212.1
2017-Aug-08 03:29N 50°27' W 000°25'713.5
2017-Aug-08 03:00N 50°29' W 000°16'713.5
2017-Aug-08 02:30N 50°31' W 000°06'713.2
2017-Aug-08 02:00N 50°33' E 000°04'612.9
2017-Aug-08 01:30N 50°35' E 000°14'612.5
2017-Aug-08 01:00N 50°37' E 000°23'612.0
2017-Aug-08 00:30N 50°38' E 000°32'611.4
2017-Aug-08 00:00N 50°41' E 000°40'511.0
2017-Aug-07 23:30N 50°44' E 000°47'510.6
2017-Aug-07 23:00N 50°47' E 000°54'510.4
2017-Aug-07 22:30N 50°50' E 001°01'510.6
2017-Aug-07 22:00N 50°54' E 001°07'611.0
2017-Aug-07 21:30N 50°57' E 001°14'611.8
2017-Aug-07 20:58N 51°01' E 001°22'613.4
2017-Aug-07 20:30N 51°05' E 001°30'714.5
2017-Aug-07 20:00N 51°10' E 001°38'714.0
2017-Aug-07 19:30N 51°15' E 001°46'713.9
2017-Aug-07 19:00N 51°21' E 001°51'613.0
2017-Aug-07 18:30N 51°27' E 001°56'612.3
2017-Aug-07 18:00N 51°31' E 002°03'611.9
2017-Aug-07 17:30N 51°36' E 002°09'611.6
2017-Aug-07 17:00N 51°40' E 002°16'611.3
2017-Aug-07 16:30N 51°44' E 002°22'510.6
2017-Aug-07 16:00N 51°48' E 002°28'510.6
2017-Aug-07 15:30N 51°52' E 002°33'  

Dump ship's entire track history